sensor_id;sensor_type;location;lat;lon;timestamp;P1;durP1;ratioP1;P2;durP2;ratioP2
24857;SDS011;12935;50.782;6.074;2024-03-23T00:55:51;137.63;;;99.27;;
24857;SDS011;12935;50.782;6.074;2024-03-23T00:58:16;114.13;;;96.70;;
24857;SDS011;12935;50.782;6.074;2024-03-23T01:00:41;114.40;;;94.87;;
24857;SDS011;12935;50.782;6.074;2024-03-23T01:03:07;124.37;;;96.43;;
24857;SDS011;12935;50.782;6.074;2024-03-23T01:05:32;113.73;;;92.87;;
24857;SDS011;12935;50.782;6.074;2024-03-23T01:07:57;129.73;;;98.40;;
24857;SDS011;12935;50.782;6.074;2024-03-23T01:10:22;120.63;;;94.70;;
24857;SDS011;12935;50.782;6.074;2024-03-23T01:12:48;99.67;;;88.57;;
24857;SDS011;12935;50.782;6.074;2024-03-23T01:15:13;123.00;;;96.73;;
24857;SDS011;12935;50.782;6.074;2024-03-23T01:17:38;116.00;;;93.93;;
24857;SDS011;12935;50.782;6.074;2024-03-23T01:20:03;113.07;;;93.27;;
24857;SDS011;12935;50.782;6.074;2024-03-23T01:22:29;114.78;;;92.80;;
24857;SDS011;12935;50.782;6.074;2024-03-23T01:24:55;122.60;;;95.43;;
24857;SDS011;12935;50.782;6.074;2024-03-23T01:27:20;117.17;;;95.83;;
24857;SDS011;12935;50.782;6.074;2024-03-23T01:29:45;114.73;;;94.97;;
24857;SDS011;12935;50.782;6.074;2024-03-23T01:32:11;142.90;;;104.67;;
24857;SDS011;12935;50.782;6.074;2024-03-23T01:34:36;113.33;;;93.57;;
24857;SDS011;12935;50.782;6.074;2024-03-23T01:37:01;110.43;;;93.53;;
24857;SDS011;12935;50.782;6.074;2024-03-23T01:39:27;127.93;;;93.70;;
24857;SDS011;12935;50.782;6.074;2024-03-23T01:41:52;142.57;;;97.30;;
24857;SDS011;12935;50.782;6.074;2024-03-23T01:44:17;113.93;;;93.60;;
24857;SDS011;12935;50.782;6.074;2024-03-23T01:46:43;111.73;;;91.63;;
24857;SDS011;12935;50.782;6.074;2024-03-23T01:49:09;121.13;;;95.47;;
24857;SDS011;12935;50.782;6.074;2024-03-23T01:51:35;125.57;;;95.53;;
24857;SDS011;12935;50.782;6.074;2024-03-23T01:54:01;131.80;;;96.80;;
24857;SDS011;12935;50.782;6.074;2024-03-23T01:56:32;116.20;;;93.88;;
24857;SDS011;12935;50.782;6.074;2024-03-23T01:59:00;115.70;;;95.10;;
24857;SDS011;12935;50.782;6.074;2024-03-23T02:01:25;106.33;;;90.67;;
24857;SDS011;12935;50.782;6.074;2024-03-23T02:03:51;117.73;;;91.93;;
24857;SDS011;12935;50.782;6.074;2024-03-23T02:06:16;115.73;;;92.30;;
24857;SDS011;12935;50.782;6.074;2024-03-23T02:08:41;118.33;;;94.90;;
24857;SDS011;12935;50.782;6.074;2024-03-23T02:11:07;152.30;;;103.80;;
24857;SDS011;12935;50.782;6.074;2024-03-23T02:13:33;114.40;;;93.27;;
24857;SDS011;12935;50.782;6.074;2024-03-23T02:15:58;174.37;;;107.50;;
24857;SDS011;12935;50.782;6.074;2024-03-23T02:18:23;112.13;;;92.00;;
24857;SDS011;12935;50.782;6.074;2024-03-23T02:20:49;130.23;;;95.93;;
24857;SDS011;12935;50.782;6.074;2024-03-23T02:23:14;124.03;;;94.90;;
24857;SDS011;12935;50.782;6.074;2024-03-23T02:25:41;118.18;;;92.38;;
24857;SDS011;12935;50.782;6.074;2024-03-23T02:28:06;117.70;;;93.30;;
24857;SDS011;12935;50.782;6.074;2024-03-23T02:30:31;128.60;;;97.57;;
24857;SDS011;12935;50.782;6.074;2024-03-23T02:32:57;138.53;;;102.97;;
24857;SDS011;12935;50.782;6.074;2024-03-23T02:35:22;99.90;;;87.33;;
24857;SDS011;12935;50.782;6.074;2024-03-23T02:37:47;125.87;;;94.87;;
24857;SDS011;12935;50.782;6.074;2024-03-23T02:40:16;128.30;;;96.28;;
24857;SDS011;12935;50.782;6.074;2024-03-23T02:42:42;115.80;;;92.05;;
24857;SDS011;12935;50.782;6.074;2024-03-23T02:45:07;109.00;;;89.53;;
24857;SDS011;12935;50.782;6.074;2024-03-23T02:47:32;122.93;;;94.27;;
24857;SDS011;12935;50.782;6.074;2024-03-23T02:49:58;110.57;;;91.93;;
24857;SDS011;12935;50.782;6.074;2024-03-23T02:52:23;124.77;;;96.03;;
24857;SDS011;12935;50.782;6.074;2024-03-23T02:54:48;104.10;;;89.30;;
24857;SDS011;12935;50.782;6.074;2024-03-23T02:57:14;121.47;;;96.27;;
24857;SDS011;12935;50.782;6.074;2024-03-23T02:59:39;124.13;;;96.60;;
24857;SDS011;12935;50.782;6.074;2024-03-23T03:02:04;128.53;;;97.53;;
24857;SDS011;12935;50.782;6.074;2024-03-23T03:04:30;133.97;;;95.27;;
24857;SDS011;12935;50.782;6.074;2024-03-23T03:06:56;146.33;;;94.80;;
24857;SDS011;12935;50.782;6.074;2024-03-23T03:09:21;113.80;;;91.93;;
24857;SDS011;12935;50.782;6.074;2024-03-23T03:11:47;107.47;;;89.73;;
24857;SDS011;12935;50.782;6.074;2024-03-23T03:14:12;138.13;;;100.97;;
24857;SDS011;12935;50.782;6.074;2024-03-23T03:16:37;120.70;;;98.77;;
24857;SDS011;12935;50.782;6.074;2024-03-23T03:19:03;119.90;;;95.10;;
24857;SDS011;12935;50.782;6.074;2024-03-23T03:21:28;107.83;;;91.17;;
24857;SDS011;12935;50.782;6.074;2024-03-23T03:23:53;115.87;;;93.23;;
24857;SDS011;12935;50.782;6.074;2024-03-23T03:26:21;114.28;;;93.38;;
24857;SDS011;12935;50.782;6.074;2024-03-23T03:28:46;121.20;;;94.03;;
24857;SDS011;12935;50.782;6.074;2024-03-23T03:31:14;120.43;;;93.50;;
24857;SDS011;12935;50.782;6.074;2024-03-23T03:33:40;143.45;;;103.30;;
24857;SDS011;12935;50.782;6.074;2024-03-23T03:36:05;137.77;;;97.70;;
24857;SDS011;12935;50.782;6.074;2024-03-23T03:38:31;108.50;;;93.03;;
24857;SDS011;12935;50.782;6.074;2024-03-23T03:40:56;152.23;;;102.63;;
24857;SDS011;12935;50.782;6.074;2024-03-23T03:43:22;134.93;;;99.60;;
24857;SDS011;12935;50.782;6.074;2024-03-23T03:45:51;110.33;;;93.37;;
24857;SDS011;12935;50.782;6.074;2024-03-23T03:48:17;113.35;;;91.35;;
24857;SDS011;12935;50.782;6.074;2024-03-23T03:50:43;108.53;;;91.37;;
24857;SDS011;12935;50.782;6.074;2024-03-23T03:53:08;98.77;;;87.93;;
24857;SDS011;12935;50.782;6.074;2024-03-23T03:55:33;114.23;;;93.20;;
24857;SDS011;12935;50.782;6.074;2024-03-23T03:57:59;126.53;;;97.57;;
24857;SDS011;12935;50.782;6.074;2024-03-23T04:00:24;111.30;;;94.80;;
24857;SDS011;12935;50.782;6.074;2024-03-23T04:02:50;109.77;;;89.47;;
24857;SDS011;12935;50.782;6.074;2024-03-23T04:05:15;117.87;;;93.77;;
24857;SDS011;12935;50.782;6.074;2024-03-23T04:07:41;108.83;;;91.93;;
24857;SDS011;12935;50.782;6.074;2024-03-23T04:10:07;114.82;;;89.07;;
24857;SDS011;12935;50.782;6.074;2024-03-23T04:12:33;121.63;;;94.03;;
24857;SDS011;12935;50.782;6.074;2024-03-23T04:14:59;109.72;;;89.30;;
24857;SDS011;12935;50.782;6.074;2024-03-23T04:17:24;119.67;;;91.23;;
24857;SDS011;12935;50.782;6.074;2024-03-23T04:19:50;111.53;;;92.07;;
24857;SDS011;12935;50.782;6.074;2024-03-23T04:22:17;117.43;;;94.53;;
24857;SDS011;12935;50.782;6.074;2024-03-23T04:24:42;107.57;;;92.23;;
24857;SDS011;12935;50.782;6.074;2024-03-23T04:27:08;119.73;;;94.53;;
24857;SDS011;12935;50.782;6.074;2024-03-23T04:29:33;117.07;;;93.83;;
24857;SDS011;12935;50.782;6.074;2024-03-23T04:31:58;129.13;;;97.93;;
24857;SDS011;12935;50.782;6.074;2024-03-23T04:34:24;107.80;;;90.90;;
24857;SDS011;12935;50.782;6.074;2024-03-23T04:36:49;109.00;;;91.17;;
24857;SDS011;12935;50.782;6.074;2024-03-23T04:39:15;132.20;;;100.10;;
24857;SDS011;12935;50.782;6.074;2024-03-23T04:41:40;116.17;;;95.70;;
24857;SDS011;12935;50.782;6.074;2024-03-23T04:44:05;113.00;;;93.80;;
24857;SDS011;12935;50.782;6.074;2024-03-23T04:46:31;113.77;;;94.37;;
24857;SDS011;12935;50.782;6.074;2024-03-23T04:48:56;122.33;;;95.23;;
24857;SDS011;12935;50.782;6.074;2024-03-23T04:51:24;122.83;;;98.00;;
24857;SDS011;12935;50.782;6.074;2024-03-23T04:53:50;115.93;;;92.10;;
24857;SDS011;12935;50.782;6.074;2024-03-23T04:56:16;117.80;;;92.93;;
24857;SDS011;12935;50.782;6.074;2024-03-23T04:58:42;123.65;;;94.10;;
24857;SDS011;12935;50.782;6.074;2024-03-23T05:01:07;145.70;;;101.43;;
24857;SDS011;12935;50.782;6.074;2024-03-23T05:03:33;101.60;;;87.27;;
24857;SDS011;12935;50.782;6.074;2024-03-23T05:05:58;144.90;;;100.07;;
24857;SDS011;12935;50.782;6.074;2024-03-23T05:08:23;111.90;;;91.73;;
24857;SDS011;12935;50.782;6.074;2024-03-23T05:10:49;119.50;;;95.33;;
24857;SDS011;12935;50.782;6.074;2024-03-23T05:13:14;104.83;;;88.93;;
24857;SDS011;12935;50.782;6.074;2024-03-23T05:15:39;127.27;;;97.73;;
24857;SDS011;12935;50.782;6.074;2024-03-23T05:18:05;119.57;;;97.83;;
24857;SDS011;12935;50.782;6.074;2024-03-23T05:20:31;111.63;;;92.17;;
24857;SDS011;12935;50.782;6.074;2024-03-23T05:22:56;114.03;;;94.83;;
24857;SDS011;12935;50.782;6.074;2024-03-23T05:25:21;124.50;;;93.53;;
24857;SDS011;12935;50.782;6.074;2024-03-23T05:27:47;105.33;;;87.90;;
24857;SDS011;12935;50.782;6.074;2024-03-23T05:30:13;121.37;;;95.73;;
24857;SDS011;12935;50.782;6.074;2024-03-23T05:32:38;117.77;;;92.70;;
24857;SDS011;12935;50.782;6.074;2024-03-23T05:35:05;109.13;;;91.10;;
24857;SDS011;12935;50.782;6.074;2024-03-23T05:37:32;98.47;;;86.82;;
24857;SDS011;12935;50.782;6.074;2024-03-23T05:39:59;120.88;;;94.70;;
24857;SDS011;12935;50.782;6.074;2024-03-23T05:42:24;120.00;;;94.67;;
24857;SDS011;12935;50.782;6.074;2024-03-23T05:44:49;107.73;;;92.83;;
24857;SDS011;12935;50.782;6.074;2024-03-23T05:47:15;104.13;;;90.70;;
24857;SDS011;12935;50.782;6.074;2024-03-23T05:49:41;109.82;;;90.97;;
24857;SDS011;12935;50.782;6.074;2024-03-23T05:52:07;101.00;;;89.53;;
24857;SDS011;12935;50.782;6.074;2024-03-23T05:54:33;99.70;;;89.22;;
24857;SDS011;12935;50.782;6.074;2024-03-23T05:56:59;100.17;;;89.00;;
24857;SDS011;12935;50.782;6.074;2024-03-23T05:59:24;118.07;;;96.07;;
24857;SDS011;12935;50.782;6.074;2024-03-23T06:01:50;100.13;;;88.43;;
24857;SDS011;12935;50.782;6.074;2024-03-23T06:04:15;121.07;;;90.70;;
24857;SDS011;12935;50.782;6.074;2024-03-23T06:06:40;115.33;;;93.13;;
24857;SDS011;12935;50.782;6.074;2024-03-23T06:09:06;116.43;;;94.73;;
24857;SDS011;12935;50.782;6.074;2024-03-23T06:11:31;96.40;;;86.20;;
24857;SDS011;12935;50.782;6.074;2024-03-23T06:13:56;104.07;;;91.03;;
24857;SDS011;12935;50.782;6.074;2024-03-23T06:16:21;115.30;;;94.80;;
24857;SDS011;12935;50.782;6.074;2024-03-23T06:18:49;101.53;;;90.45;;
24857;SDS011;12935;50.782;6.074;2024-03-23T06:21:18;101.10;;;89.55;;
24857;SDS011;12935;50.782;6.074;2024-03-23T06:23:44;106.50;;;94.30;;
24857;SDS011;12935;50.782;6.074;2024-03-23T06:26:16;119.95;;;96.63;;
24857;SDS011;12935;50.782;6.074;2024-03-23T06:28:42;122.45;;;96.60;;
24857;SDS011;12935;50.782;6.074;2024-03-23T06:31:10;149.60;;;103.00;;
24857;SDS011;12935;50.782;6.074;2024-03-23T06:33:36;111.22;;;94.75;;
24857;SDS011;12935;50.782;6.074;2024-03-23T06:36:01;167.53;;;105.83;;
24857;SDS011;12935;50.782;6.074;2024-03-23T06:38:28;110.40;;;91.68;;
24857;SDS011;12935;50.782;6.074;2024-03-23T06:40:53;133.50;;;98.67;;
24857;SDS011;12935;50.782;6.074;2024-03-23T06:43:18;133.37;;;97.37;;
24857;SDS011;12935;50.782;6.074;2024-03-23T06:45:44;118.67;;;93.40;;
24857;SDS011;12935;50.782;6.074;2024-03-23T06:48:09;108.33;;;93.63;;
24857;SDS011;12935;50.782;6.074;2024-03-23T06:50:34;100.87;;;89.83;;
24857;SDS011;12935;50.782;6.074;2024-03-23T06:53:00;114.20;;;94.60;;
24857;SDS011;12935;50.782;6.074;2024-03-23T06:55:27;113.95;;;92.95;;
24857;SDS011;12935;50.782;6.074;2024-03-23T06:57:53;117.20;;;94.45;;
24857;SDS011;12935;50.782;6.074;2024-03-23T07:00:18;104.40;;;91.00;;
24857;SDS011;12935;50.782;6.074;2024-03-23T07:02:43;123.37;;;98.17;;
24857;SDS011;12935;50.782;6.074;2024-03-23T07:05:09;103.97;;;89.30;;
24857;SDS011;12935;50.782;6.074;2024-03-23T07:07:35;112.30;;;92.90;;
24857;SDS011;12935;50.782;6.074;2024-03-23T07:10:01;103.83;;;90.70;;
24857;SDS011;12935;50.782;6.074;2024-03-23T07:12:26;131.57;;;103.23;;
24857;SDS011;12935;50.782;6.074;2024-03-23T07:14:51;144.40;;;96.33;;
24857;SDS011;12935;50.782;6.074;2024-03-23T07:17:16;103.07;;;87.37;;
24857;SDS011;12935;50.782;6.074;2024-03-23T07:19:43;110.70;;;93.68;;
24857;SDS011;12935;50.782;6.074;2024-03-23T07:22:08;116.97;;;95.30;;
24857;SDS011;12935;50.782;6.074;2024-03-23T07:24:34;100.70;;;89.37;;
24857;SDS011;12935;50.782;6.074;2024-03-23T07:26:59;102.57;;;89.60;;
24857;SDS011;12935;50.782;6.074;2024-03-23T07:29:24;122.77;;;96.97;;
24857;SDS011;12935;50.782;6.074;2024-03-23T07:31:49;102.07;;;87.87;;
24857;SDS011;12935;50.782;6.074;2024-03-23T07:34:15;109.10;;;94.07;;
24857;SDS011;12935;50.782;6.074;2024-03-23T07:36:40;123.20;;;95.63;;
24857;SDS011;12935;50.782;6.074;2024-03-23T07:39:05;123.33;;;96.80;;
24857;SDS011;12935;50.782;6.074;2024-03-23T07:41:31;118.03;;;94.37;;
24857;SDS011;12935;50.782;6.074;2024-03-23T07:43:56;104.17;;;89.93;;
24857;SDS011;12935;50.782;6.074;2024-03-23T07:46:21;133.37;;;98.57;;
24857;SDS011;12935;50.782;6.074;2024-03-23T07:48:47;103.40;;;91.50;;
24857;SDS011;12935;50.782;6.074;2024-03-23T07:51:20;116.93;;;92.13;;
24857;SDS011;12935;50.782;6.074;2024-03-23T07:53:47;101.82;;;89.25;;
24857;SDS011;12935;50.782;6.074;2024-03-23T07:56:13;121.60;;;95.55;;
24857;SDS011;12935;50.782;6.074;2024-03-23T07:58:46;113.20;;;91.80;;
24857;SDS011;12935;50.782;6.074;2024-03-23T08:01:13;131.60;;;97.28;;
24857;SDS011;12935;50.782;6.074;2024-03-23T08:03:41;126.72;;;96.93;;
24857;SDS011;12935;50.782;6.074;2024-03-23T08:06:08;157.70;;;105.13;;
24857;SDS011;12935;50.782;6.074;2024-03-23T08:08:36;114.45;;;92.43;;
24857;SDS011;12935;50.782;6.074;2024-03-23T08:11:02;174.17;;;106.33;;
24857;SDS011;12935;50.782;6.074;2024-03-23T08:13:28;122.43;;;94.78;;
24857;SDS011;12935;50.782;6.074;2024-03-23T08:15:57;126.97;;;97.20;;
24857;SDS011;12935;50.782;6.074;2024-03-23T08:18:23;106.47;;;90.57;;
24857;SDS011;12935;50.782;6.074;2024-03-23T08:20:55;112.33;;;91.53;;
24857;SDS011;12935;50.782;6.074;2024-03-23T08:23:26;134.65;;;98.22;;
24857;SDS011;12935;50.782;6.074;2024-03-23T08:26:00;101.65;;;86.30;;
24857;SDS011;12935;50.782;6.074;2024-03-23T08:28:26;108.18;;;91.45;;
24857;SDS011;12935;50.782;6.074;2024-03-23T08:30:52;125.18;;;96.80;;
24857;SDS011;12935;50.782;6.074;2024-03-23T08:33:18;108.97;;;91.22;;
24857;SDS011;12935;50.782;6.074;2024-03-23T08:35:52;115.50;;;90.83;;
24857;SDS011;12935;50.782;6.074;2024-03-23T08:38:22;112.50;;;89.72;;
24857;SDS011;12935;50.782;6.074;2024-03-23T08:40:48;109.40;;;90.78;;
24857;SDS011;12935;50.782;6.074;2024-03-23T08:43:13;109.13;;;92.93;;
24857;SDS011;12935;50.782;6.074;2024-03-23T08:45:38;101.07;;;89.13;;
24857;SDS011;12935;50.782;6.074;2024-03-23T08:48:04;119.67;;;92.77;;
24857;SDS011;12935;50.782;6.074;2024-03-23T08:50:29;130.43;;;101.00;;
24857;SDS011;12935;50.782;6.074;2024-03-23T08:52:55;100.80;;;88.37;;
24857;SDS011;12935;50.782;6.074;2024-03-23T08:55:20;109.80;;;91.70;;
24857;SDS011;12935;50.782;6.074;2024-03-23T08:57:45;128.60;;;95.57;;
24857;SDS011;12935;50.782;6.074;2024-03-23T09:00:10;115.50;;;91.87;;
24857;SDS011;12935;50.782;6.074;2024-03-23T09:02:36;113.47;;;91.80;;
24857;SDS011;12935;50.782;6.074;2024-03-23T09:05:02;117.10;;;93.30;;
24857;SDS011;12935;50.782;6.074;2024-03-23T09:07:29;106.25;;;91.70;;
24857;SDS011;12935;50.782;6.074;2024-03-23T09:09:55;105.75;;;92.68;;
24857;SDS011;12935;50.782;6.074;2024-03-23T09:12:21;130.17;;;99.00;;
24857;SDS011;12935;50.782;6.074;2024-03-23T09:14:46;123.60;;;94.03;;
24857;SDS011;12935;50.782;6.074;2024-03-23T09:17:11;121.27;;;91.97;;
24857;SDS011;12935;50.782;6.074;2024-03-23T09:19:36;123.10;;;93.37;;
24857;SDS011;12935;50.782;6.074;2024-03-23T09:22:02;112.60;;;90.63;;
24857;SDS011;12935;50.782;6.074;2024-03-23T09:24:27;103.37;;;86.23;;
24857;SDS011;12935;50.782;6.074;2024-03-23T09:26:53;113.37;;;93.33;;
24857;SDS011;12935;50.782;6.074;2024-03-23T09:29:18;122.40;;;95.73;;
24857;SDS011;12935;50.782;6.074;2024-03-23T09:31:43;114.70;;;92.83;;
24857;SDS011;12935;50.782;6.074;2024-03-23T09:34:08;105.97;;;91.80;;
24857;SDS011;12935;50.782;6.074;2024-03-23T09:36:33;107.67;;;90.17;;
24857;SDS011;12935;50.782;6.074;2024-03-23T09:38:59;101.87;;;89.17;;
24857;SDS011;12935;50.782;6.074;2024-03-23T09:41:24;112.87;;;91.10;;
24857;SDS011;12935;50.782;6.074;2024-03-23T09:43:52;108.83;;;89.60;;
24857;SDS011;12935;50.782;6.074;2024-03-23T09:46:18;106.50;;;89.60;;
24857;SDS011;12935;50.782;6.074;2024-03-23T09:48:44;126.30;;;95.30;;
24857;SDS011;12935;50.782;6.074;2024-03-23T09:51:11;134.32;;;98.95;;
24857;SDS011;12935;50.782;6.074;2024-03-23T09:53:37;109.20;;;92.70;;
24857;SDS011;12935;50.782;6.074;2024-03-23T09:56:02;146.47;;;101.90;;
24857;SDS011;12935;50.782;6.074;2024-03-23T09:58:27;121.73;;;95.70;;
24857;SDS011;12935;50.782;6.074;2024-03-23T10:00:53;113.87;;;93.57;;
24857;SDS011;12935;50.782;6.074;2024-03-23T10:03:18;115.27;;;94.90;;
24857;SDS011;12935;50.782;6.074;2024-03-23T10:05:43;139.53;;;99.87;;
24857;SDS011;12935;50.782;6.074;2024-03-23T10:10:38;116.90;;;94.88;;
24857;SDS011;12935;50.782;6.074;2024-03-23T10:13:03;146.97;;;105.43;;
24857;SDS011;12935;50.782;6.074;2024-03-23T10:15:28;132.07;;;99.50;;
24857;SDS011;12935;50.782;6.074;2024-03-23T10:17:54;125.07;;;96.20;;
24857;SDS011;12935;50.782;6.074;2024-03-23T10:20:23;134.33;;;98.60;;
24857;SDS011;12935;50.782;6.074;2024-03-23T10:22:49;154.82;;;105.00;;
24857;SDS011;12935;50.782;6.074;2024-03-23T10:25:16;112.30;;;91.60;;
24857;SDS011;12935;50.782;6.074;2024-03-23T10:27:42;115.07;;;92.90;;
24857;SDS011;12935;50.782;6.074;2024-03-23T10:30:09;120.40;;;94.93;;
24857;SDS011;12935;50.782;6.074;2024-03-23T10:32:35;111.72;;;94.45;;
24857;SDS011;12935;50.782;6.074;2024-03-23T10:35:14;122.45;;;98.00;;
24857;SDS011;12935;50.782;6.074;2024-03-23T10:37:43;109.32;;;93.57;;
24857;SDS011;12935;50.782;6.074;2024-03-23T10:40:11;124.07;;;97.37;;
24857;SDS011;12935;50.782;6.074;2024-03-23T10:42:37;125.63;;;96.57;;
24857;SDS011;12935;50.782;6.074;2024-03-23T10:45:06;116.25;;;93.70;;
24857;SDS011;12935;50.782;6.074;2024-03-23T10:47:34;151.10;;;104.65;;
24857;SDS011;12935;50.782;6.074;2024-03-23T10:49:59;122.00;;;96.20;;
24857;SDS011;12935;50.782;6.074;2024-03-23T10:52:25;139.33;;;101.53;;
24857;SDS011;12935;50.782;6.074;2024-03-23T10:54:53;111.20;;;93.80;;
24857;SDS011;12935;50.782;6.074;2024-03-23T10:57:21;129.77;;;101.60;;
24857;SDS011;12935;50.782;6.074;2024-03-23T10:59:52;120.43;;;96.07;;
24857;SDS011;12935;50.782;6.074;2024-03-23T11:02:21;130.35;;;99.78;;
24857;SDS011;12935;50.782;6.074;2024-03-23T11:04:47;126.57;;;96.82;;
24857;SDS011;12935;50.782;6.074;2024-03-23T11:09:50;121.53;;;94.50;;
24857;SDS011;12935;50.782;6.074;2024-03-23T11:15:01;127.43;;;99.22;;
24857;SDS011;12935;50.782;6.074;2024-03-23T11:17:29;129.63;;;99.63;;
24857;SDS011;12935;50.782;6.074;2024-03-23T11:25:15;142.95;;;102.80;;
24857;SDS011;12935;50.782;6.074;2024-03-23T11:27:41;143.30;;;102.97;;
24857;SDS011;12935;50.782;6.074;2024-03-23T11:30:18;127.28;;;96.85;;
24857;SDS011;12935;50.782;6.074;2024-03-23T11:32:44;130.32;;;101.35;;
24857;SDS011;12935;50.782;6.074;2024-03-23T11:35:10;124.55;;;97.82;;
24857;SDS011;12935;50.782;6.074;2024-03-23T11:40:30;139.70;;;103.10;;
24857;SDS011;12935;50.782;6.074;2024-03-23T11:42:58;115.22;;;95.43;;
24857;SDS011;12935;50.782;6.074;2024-03-23T11:45:23;117.93;;;96.35;;
24857;SDS011;12935;50.782;6.074;2024-03-23T11:47:49;145.87;;;105.83;;
24857;SDS011;12935;50.782;6.074;2024-03-23T11:50:26;142.00;;;103.70;;
24857;SDS011;12935;50.782;6.074;2024-03-23T11:52:52;148.40;;;104.70;;
24857;SDS011;12935;50.782;6.074;2024-03-23T11:55:17;153.97;;;107.17;;
24857;SDS011;12935;50.782;6.074;2024-03-23T11:57:43;131.90;;;100.80;;
24857;SDS011;12935;50.782;6.074;2024-03-23T12:00:21;143.10;;;103.70;;
24857;SDS011;12935;50.782;6.074;2024-03-23T12:02:47;165.23;;;109.38;;
24857;SDS011;12935;50.782;6.074;2024-03-23T12:05:15;136.90;;;99.93;;
24857;SDS011;12935;50.782;6.074;2024-03-23T12:07:41;139.38;;;101.15;;
24857;SDS011;12935;50.782;6.074;2024-03-23T12:10:06;118.80;;;96.10;;
24857;SDS011;12935;50.782;6.074;2024-03-23T12:12:32;148.20;;;105.60;;
24857;SDS011;12935;50.782;6.074;2024-03-23T12:15:04;128.87;;;99.33;;
24857;SDS011;12935;50.782;6.074;2024-03-23T12:17:31;128.68;;;99.95;;
24857;SDS011;12935;50.782;6.074;2024-03-23T12:19:56;118.90;;;95.67;;
24857;SDS011;12935;50.782;6.074;2024-03-23T12:22:22;131.33;;;103.03;;
24857;SDS011;12935;50.782;6.074;2024-03-23T12:24:48;127.70;;;98.97;;
24857;SDS011;12935;50.782;6.074;2024-03-23T12:27:13;124.00;;;97.00;;
24857;SDS011;12935;50.782;6.074;2024-03-23T12:29:39;156.75;;;107.60;;
24857;SDS011;12935;50.782;6.074;2024-03-23T12:32:06;154.32;;;109.93;;
24857;SDS011;12935;50.782;6.074;2024-03-23T12:34:32;124.60;;;99.03;;
24857;SDS011;12935;50.782;6.074;2024-03-23T12:36:57;157.07;;;105.60;;
24857;SDS011;12935;50.782;6.074;2024-03-23T12:39:23;145.90;;;105.57;;
24857;SDS011;12935;50.782;6.074;2024-03-23T12:41:48;133.90;;;102.70;;
24857;SDS011;12935;50.782;6.074;2024-03-23T12:44:14;127.10;;;97.50;;
24857;SDS011;12935;50.782;6.074;2024-03-23T12:46:40;143.88;;;101.25;;
24857;SDS011;12935;50.782;6.074;2024-03-23T12:49:07;152.45;;;104.97;;
24857;SDS011;12935;50.782;6.074;2024-03-23T12:51:32;134.13;;;99.83;;
24857;SDS011;12935;50.782;6.074;2024-03-23T12:54:00;120.88;;;96.68;;
24857;SDS011;12935;50.782;6.074;2024-03-23T12:56:26;133.10;;;99.70;;
24857;SDS011;12935;50.782;6.074;2024-03-23T12:58:53;143.27;;;101.50;;
24857;SDS011;12935;50.782;6.074;2024-03-23T13:01:20;130.13;;;98.50;;
24857;SDS011;12935;50.782;6.074;2024-03-23T13:03:46;137.80;;;103.10;;
24857;SDS011;12935;50.782;6.074;2024-03-23T13:06:12;172.80;;;109.15;;
24857;SDS011;12935;50.782;6.074;2024-03-23T13:08:37;107.37;;;92.87;;
24857;SDS011;12935;50.782;6.074;2024-03-23T13:11:02;159.93;;;104.77;;
24857;SDS011;12935;50.782;6.074;2024-03-23T13:13:28;118.43;;;95.10;;
24857;SDS011;12935;50.782;6.074;2024-03-23T13:15:53;119.80;;;96.13;;
24857;SDS011;12935;50.782;6.074;2024-03-23T13:18:18;108.93;;;94.47;;
24857;SDS011;12935;50.782;6.074;2024-03-23T13:20:44;129.03;;;101.03;;
24857;SDS011;12935;50.782;6.074;2024-03-23T13:23:09;110.60;;;92.80;;
24857;SDS011;12935;50.782;6.074;2024-03-23T13:25:34;125.93;;;98.23;;
24857;SDS011;12935;50.782;6.074;2024-03-23T13:28:00;110.28;;;94.10;;
24857;SDS011;12935;50.782;6.074;2024-03-23T13:30:26;128.73;;;98.03;;
24857;SDS011;12935;50.782;6.074;2024-03-23T13:32:51;136.60;;;99.17;;
24857;SDS011;12935;50.782;6.074;2024-03-23T13:35:16;114.53;;;92.60;;
24857;SDS011;12935;50.782;6.074;2024-03-23T13:37:42;126.60;;;99.87;;
24857;SDS011;12935;50.782;6.074;2024-03-23T13:40:07;137.33;;;99.80;;
24857;SDS011;12935;50.782;6.074;2024-03-23T13:42:33;134.95;;;96.95;;
24857;SDS011;12935;50.782;6.074;2024-03-23T13:44:58;126.83;;;98.27;;
24857;SDS011;12935;50.782;6.074;2024-03-23T13:47:23;130.87;;;98.10;;
24857;SDS011;12935;50.782;6.074;2024-03-23T13:49:49;117.57;;;96.70;;
24857;SDS011;12935;50.782;6.074;2024-03-23T13:52:14;114.77;;;93.50;;
24857;SDS011;12935;50.782;6.074;2024-03-23T13:54:39;135.73;;;101.23;;
24857;SDS011;12935;50.782;6.074;2024-03-23T13:57:10;115.25;;;93.93;;
24857;SDS011;12935;50.782;6.074;2024-03-23T13:59:35;110.77;;;93.87;;
24857;SDS011;12935;50.782;6.074;2024-03-23T14:02:01;137.13;;;101.77;;
24857;SDS011;12935;50.782;6.074;2024-03-23T14:04:26;134.47;;;101.73;;
24857;SDS011;12935;50.782;6.074;2024-03-23T14:06:52;112.43;;;100.33;;
24857;SDS011;12935;50.782;6.074;2024-03-23T14:09:17;134.53;;;119.70;;
24857;SDS011;12935;50.782;6.074;2024-03-23T14:11:47;128.95;;;114.22;;
24857;SDS011;12935;50.782;6.074;2024-03-23T14:14:13;145.77;;;130.47;;
24857;SDS011;12935;50.782;6.074;2024-03-23T14:16:38;162.27;;;144.53;;
24857;SDS011;12935;50.782;6.074;2024-03-23T14:19:03;187.17;;;151.77;;
24857;SDS011;12935;50.782;6.074;2024-03-23T14:21:30;155.53;;;131.27;;
24857;SDS011;12935;50.782;6.074;2024-03-23T14:23:56;147.37;;;130.73;;
24857;SDS011;12935;50.782;6.074;2024-03-23T14:26:21;152.60;;;136.83;;
24857;SDS011;12935;50.782;6.074;2024-03-23T14:28:46;145.77;;;118.53;;
24857;SDS011;12935;50.782;6.074;2024-03-23T14:31:14;186.23;;;130.47;;
24857;SDS011;12935;50.782;6.074;2024-03-23T14:33:39;172.03;;;152.00;;
24857;SDS011;12935;50.782;6.074;2024-03-23T14:36:23;142.33;;;114.13;;
24857;SDS011;12935;50.782;6.074;2024-03-23T14:38:49;147.50;;;127.90;;
24857;SDS011;12935;50.782;6.074;2024-03-23T14:41:15;215.20;;;141.67;;
24857;SDS011;12935;50.782;6.074;2024-03-23T14:43:40;157.80;;;116.60;;
24857;SDS011;12935;50.782;6.074;2024-03-23T14:46:09;196.20;;;132.23;;
24857;SDS011;12935;50.782;6.074;2024-03-23T14:48:39;153.60;;;119.00;;
24857;SDS011;12935;50.782;6.074;2024-03-23T14:51:05;215.27;;;122.70;;
24857;SDS011;12935;50.782;6.074;2024-03-23T14:53:32;143.23;;;122.90;;
24857;SDS011;12935;50.782;6.074;2024-03-23T14:55:59;156.27;;;123.00;;
24857;SDS011;12935;50.782;6.074;2024-03-23T14:58:25;144.32;;;128.35;;
24857;SDS011;12935;50.782;6.074;2024-03-23T15:00:51;136.50;;;118.03;;
24857;SDS011;12935;50.782;6.074;2024-03-23T15:03:19;142.70;;;106.40;;
24857;SDS011;12935;50.782;6.074;2024-03-23T15:05:56;155.20;;;124.40;;
24857;SDS011;12935;50.782;6.074;2024-03-23T15:08:23;146.82;;;112.18;;
24857;SDS011;12935;50.782;6.074;2024-03-23T15:10:48;134.43;;;115.30;;